Terminal Aerodrome Forecast
Issued by NWS Pueblo, CO

Home | Current Version | Previous Version | Text Only | Print | Product List | Glossary On
Versions: 1 2 3 4 5 6 7 8 9 10 11 12 13 14 15 16 17 18 19 20 21 22 23 24
484
FTUS45 KPUB 051121
TAFPUB
TAF
KPUB 051121Z 0512/0612 31006KT P6SM FEW250
     FM051800 13008KT P6SM FEW120 SCT250
     FM060200 06007KT P6SM SCT250
     FM060700 29005KT P6SM BKN250=

USA.gov is the U.S. government's official web portal to all federal, state and local government web resources and services.